sensor_id;sensor_type;location;lat;lon;timestamp;temperature;humidity
70830;SHT30;58451;51.550;7.208;2023-08-17T00:00:58;17.12;82.57
70830;SHT30;58451;51.550;7.208;2023-08-17T00:02:30;17.11;83.27
70830;SHT30;58451;51.550;7.208;2023-08-17T00:04:02;17.10;83.15
70830;SHT30;58451;51.550;7.208;2023-08-17T00:05:34;17.08;83.57
70830;SHT30;58451;51.550;7.208;2023-08-17T00:07:06;17.07;83.35
70830;SHT30;58451;51.550;7.208;2023-08-17T00:08:38;17.06;83.50
70830;SHT30;58451;51.550;7.208;2023-08-17T00:10:10;17.03;83.50
70830;SHT30;58451;51.550;7.208;2023-08-17T00:11:41;17.03;83.33
70830;SHT30;58451;51.550;7.208;2023-08-17T00:13:13;17.02;83.87
70830;SHT30;58451;51.550;7.208;2023-08-17T00:14:45;17.00;84.20
70830;SHT30;58451;51.550;7.208;2023-08-17T00:16:17;17.00;83.90
70830;SHT30;58451;51.550;7.208;2023-08-17T00:17:49;16.99;83.72
70830;SHT30;58451;51.550;7.208;2023-08-17T00:19:21;16.99;83.47
70830;SHT30;58451;51.550;7.208;2023-08-17T00:20:53;17.00;83.93
70830;SHT30;58451;51.550;7.208;2023-08-17T00:22:25;16.98;83.97
70830;SHT30;58451;51.550;7.208;2023-08-17T00:23:57;16.99;84.40
70830;SHT30;58451;51.550;7.208;2023-08-17T00:25:28;16.97;84.52
70830;SHT30;58451;51.550;7.208;2023-08-17T00:27:00;16.96;84.63
70830;SHT30;58451;51.550;7.208;2023-08-17T00:28:32;16.94;84.10
70830;SHT30;58451;51.550;7.208;2023-08-17T00:30:04;16.94;83.92
70830;SHT30;58451;51.550;7.208;2023-08-17T00:31:37;16.93;83.73
70830;SHT30;58451;51.550;7.208;2023-08-17T00:33:09;16.93;83.67
70830;SHT30;58451;51.550;7.208;2023-08-17T00:34:41;16.93;83.67
70830;SHT30;58451;51.550;7.208;2023-08-17T00:36:13;16.94;83.80
70830;SHT30;58451;51.550;7.208;2023-08-17T00:37:45;16.94;83.63
70830;SHT30;58451;51.550;7.208;2023-08-17T00:39:17;16.94;83.53
70830;SHT30;58451;51.550;7.208;2023-08-17T00:40:50;16.95;83.48
70830;SHT30;58451;51.550;7.208;2023-08-17T00:42:22;16.96;83.48
70830;SHT30;58451;51.550;7.208;2023-08-17T00:43:54;16.95;83.50
70830;SHT30;58451;51.550;7.208;2023-08-17T00:45:28;16.95;83.43
70830;SHT30;58451;51.550;7.208;2023-08-17T00:47:00;16.96;83.47
70830;SHT30;58451;51.550;7.208;2023-08-17T00:48:33;16.96;83.40
70830;SHT30;58451;51.550;7.208;2023-08-17T00:50:05;16.95;83.28
70830;SHT30;58451;51.550;7.208;2023-08-17T00:51:38;16.97;83.32
70830;SHT30;58451;51.550;7.208;2023-08-17T00:53:10;16.98;83.28
70830;SHT30;58451;51.550;7.208;2023-08-17T00:54:45;16.98;83.23
70830;SHT30;58451;51.550;7.208;2023-08-17T00:56:17;16.98;83.35
70830;SHT30;58451;51.550;7.208;2023-08-17T00:57:49;16.99;83.43
70830;SHT30;58451;51.550;7.208;2023-08-17T00:59:23;17.00;83.47
70830;SHT30;58451;51.550;7.208;2023-08-17T01:00:55;17.00;83.40
70830;SHT30;58451;51.550;7.208;2023-08-17T01:02:27;17.01;83.35
70830;SHT30;58451;51.550;7.208;2023-08-17T01:04:00;17.02;83.37
70830;SHT30;58451;51.550;7.208;2023-08-17T01:05:31;17.03;83.42
70830;SHT30;58451;51.550;7.208;2023-08-17T01:07:04;17.03;83.53
70830;SHT30;58451;51.550;7.208;2023-08-17T01:08:37;17.03;83.47
70830;SHT30;58451;51.550;7.208;2023-08-17T01:10:12;17.03;83.62
70830;SHT30;58451;51.550;7.208;2023-08-17T01:15:33;17.01;83.58
70830;SHT30;58451;51.550;7.208;2023-08-17T01:17:12;17.01;83.65
70830;SHT30;58451;51.550;7.208;2023-08-17T01:18:54;17.01;83.70
70830;SHT30;58451;51.550;7.208;2023-08-17T01:20:31;17.01;83.88
70830;SHT30;58451;51.550;7.208;2023-08-17T01:22:04;17.01;84.03
70830;SHT30;58451;51.550;7.208;2023-08-17T01:23:39;17.00;84.18
70830;SHT30;58451;51.550;7.208;2023-08-17T01:25:11;16.99;84.13
70830;SHT30;58451;51.550;7.208;2023-08-17T01:26:43;16.98;84.08
70830;SHT30;58451;51.550;7.208;2023-08-17T01:28:19;16.99;84.03
70830;SHT30;58451;51.550;7.208;2023-08-17T01:29:51;17.00;84.12
70830;SHT30;58451;51.550;7.208;2023-08-17T01:31:25;16.98;84.13
70830;SHT30;58451;51.550;7.208;2023-08-17T01:33:08;16.97;83.97
70830;SHT30;58451;51.550;7.208;2023-08-17T01:34:44;16.99;84.03
70830;SHT30;58451;51.550;7.208;2023-08-17T01:36:26;16.99;84.03
70830;SHT30;58451;51.550;7.208;2023-08-17T01:38:07;16.99;84.18
70830;SHT30;58451;51.550;7.208;2023-08-17T01:39:46;16.98;84.05
70830;SHT30;58451;51.550;7.208;2023-08-17T01:41:26;16.97;84.00
70830;SHT30;58451;51.550;7.208;2023-08-17T01:42:59;16.97;84.08
70830;SHT30;58451;51.550;7.208;2023-08-17T01:44:33;16.97;84.07
70830;SHT30;58451;51.550;7.208;2023-08-17T01:46:06;16.98;84.13
70830;SHT30;58451;51.550;7.208;2023-08-17T01:47:39;16.97;84.18
70830;SHT30;58451;51.550;7.208;2023-08-17T01:49:11;16.96;84.37
70830;SHT30;58451;51.550;7.208;2023-08-17T01:50:43;16.94;84.28
70830;SHT30;58451;51.550;7.208;2023-08-17T01:52:15;16.95;84.42
70830;SHT30;58451;51.550;7.208;2023-08-17T01:53:47;16.93;84.42
70830;SHT30;58451;51.550;7.208;2023-08-17T01:55:20;16.94;84.57
70830;SHT30;58451;51.550;7.208;2023-08-17T01:56:53;16.92;84.58
70830;SHT30;58451;51.550;7.208;2023-08-17T01:58:24;16.91;84.57
70830;SHT30;58451;51.550;7.208;2023-08-17T01:59:56;16.91;84.40
70830;SHT30;58451;51.550;7.208;2023-08-17T02:01:28;16.89;84.45
70830;SHT30;58451;51.550;7.208;2023-08-17T02:03:00;16.89;84.55
70830;SHT30;58451;51.550;7.208;2023-08-17T02:04:32;16.89;84.78
70830;SHT30;58451;51.550;7.208;2023-08-17T02:06:04;16.87;84.73
70830;SHT30;58451;51.550;7.208;2023-08-17T02:07:36;16.86;84.67
70830;SHT30;58451;51.550;7.208;2023-08-17T02:09:08;16.86;84.57
70830;SHT30;58451;51.550;7.208;2023-08-17T02:10:40;16.85;84.47
70830;SHT30;58451;51.550;7.208;2023-08-17T02:12:12;16.86;84.52
70830;SHT30;58451;51.550;7.208;2023-08-17T02:13:44;16.86;84.62
70830;SHT30;58451;51.550;7.208;2023-08-17T02:15:16;16.85;84.60
70830;SHT30;58451;51.550;7.208;2023-08-17T02:16:48;16.84;84.50
70830;SHT30;58451;51.550;7.208;2023-08-17T02:18:20;16.85;84.60
70830;SHT30;58451;51.550;7.208;2023-08-17T02:19:52;16.83;84.72
70830;SHT30;58451;51.550;7.208;2023-08-17T02:21:24;16.84;84.73
70830;SHT30;58451;51.550;7.208;2023-08-17T02:22:56;16.82;84.72
70830;SHT30;58451;51.550;7.208;2023-08-17T02:24:27;16.82;84.62
70830;SHT30;58451;51.550;7.208;2023-08-17T02:25:59;16.82;84.58
70830;SHT30;58451;51.550;7.208;2023-08-17T02:27:31;16.82;84.63
70830;SHT30;58451;51.550;7.208;2023-08-17T02:29:03;16.80;84.65
70830;SHT30;58451;51.550;7.208;2023-08-17T02:30:35;16.81;84.67
70830;SHT30;58451;51.550;7.208;2023-08-17T02:32:07;16.79;84.72
70830;SHT30;58451;51.550;7.208;2023-08-17T02:33:38;16.79;84.65
70830;SHT30;58451;51.550;7.208;2023-08-17T02:35:10;16.78;84.68
70830;SHT30;58451;51.550;7.208;2023-08-17T02:36:42;16.77;84.77
70830;SHT30;58451;51.550;7.208;2023-08-17T02:38:14;16.75;84.72
70830;SHT30;58451;51.550;7.208;2023-08-17T02:39:46;16.75;84.87
70830;SHT30;58451;51.550;7.208;2023-08-17T02:41:18;16.73;84.93
70830;SHT30;58451;51.550;7.208;2023-08-17T02:42:50;16.72;85.00
70830;SHT30;58451;51.550;7.208;2023-08-17T02:44:21;16.70;84.82
70830;SHT30;58451;51.550;7.208;2023-08-17T02:45:53;16.68;84.83
70830;SHT30;58451;51.550;7.208;2023-08-17T02:47:25;16.67;85.07
70830;SHT30;58451;51.550;7.208;2023-08-17T02:48:57;16.67;85.05
70830;SHT30;58451;51.550;7.208;2023-08-17T02:50:29;16.65;84.98
70830;SHT30;58451;51.550;7.208;2023-08-17T02:52:01;16.64;85.02
70830;SHT30;58451;51.550;7.208;2023-08-17T02:53:33;16.64;84.95
70830;SHT30;58451;51.550;7.208;2023-08-17T02:55:05;16.63;84.82
70830;SHT30;58451;51.550;7.208;2023-08-17T02:56:38;16.64;84.77
70830;SHT30;58451;51.550;7.208;2023-08-17T02:58:09;16.65;84.78
70830;SHT30;58451;51.550;7.208;2023-08-17T02:59:41;16.66;84.82
70830;SHT30;58451;51.550;7.208;2023-08-17T03:01:13;16.67;84.92
70830;SHT30;58451;51.550;7.208;2023-08-17T03:02:45;16.67;84.93
70830;SHT30;58451;51.550;7.208;2023-08-17T03:04:17;16.68;84.95
70830;SHT30;58451;51.550;7.208;2023-08-17T03:05:49;16.68;84.98
70830;SHT30;58451;51.550;7.208;2023-08-17T03:07:20;16.69;84.95
70830;SHT30;58451;51.550;7.208;2023-08-17T03:08:52;16.69;85.08
70830;SHT30;58451;51.550;7.208;2023-08-17T03:10:25;16.69;85.00
70830;SHT30;58451;51.550;7.208;2023-08-17T03:11:57;16.69;84.90
70830;SHT30;58451;51.550;7.208;2023-08-17T03:13:28;16.70;84.92
70830;SHT30;58451;51.550;7.208;2023-08-17T03:15:00;16.70;84.92
70830;SHT30;58451;51.550;7.208;2023-08-17T03:16:33;16.71;84.93
70830;SHT30;58451;51.550;7.208;2023-08-17T03:18:04;16.72;84.90
70830;SHT30;58451;51.550;7.208;2023-08-17T03:19:37;16.72;84.90
70830;SHT30;58451;51.550;7.208;2023-08-17T03:21:09;16.73;84.83
70830;SHT30;58451;51.550;7.208;2023-08-17T03:22:41;16.73;84.88
70830;SHT30;58451;51.550;7.208;2023-08-17T03:24:13;16.73;84.92
70830;SHT30;58451;51.550;7.208;2023-08-17T03:25:44;16.72;84.95
70830;SHT30;58451;51.550;7.208;2023-08-17T03:27:17;16.72;85.00
70830;SHT30;58451;51.550;7.208;2023-08-17T03:28:49;16.71;85.08
70830;SHT30;58451;51.550;7.208;2023-08-17T03:30:21;16.70;85.10
70830;SHT30;58451;51.550;7.208;2023-08-17T03:31:53;16.68;85.02
70830;SHT30;58451;51.550;7.208;2023-08-17T03:33:27;16.68;84.92
70830;SHT30;58451;51.550;7.208;2023-08-17T03:34:59;16.67;84.97
70830;SHT30;58451;51.550;7.208;2023-08-17T03:36:31;16.67;85.05
70830;SHT30;58451;51.550;7.208;2023-08-17T03:38:02;16.67;84.98
70830;SHT30;58451;51.550;7.208;2023-08-17T03:39:35;16.67;84.98
70830;SHT30;58451;51.550;7.208;2023-08-17T03:41:07;16.66;84.93
70830;SHT30;58451;51.550;7.208;2023-08-17T03:42:39;16.66;85.03
70830;SHT30;58451;51.550;7.208;2023-08-17T03:44:11;16.65;84.97
70830;SHT30;58451;51.550;7.208;2023-08-17T03:45:45;16.65;85.08
70830;SHT30;58451;51.550;7.208;2023-08-17T03:47:18;16.64;85.05
70830;SHT30;58451;51.550;7.208;2023-08-17T03:48:50;16.64;85.15
70830;SHT30;58451;51.550;7.208;2023-08-17T03:50:22;16.62;85.05
70830;SHT30;58451;51.550;7.208;2023-08-17T03:51:57;16.61;85.02
70830;SHT30;58451;51.550;7.208;2023-08-17T03:53:29;16.61;85.02
70830;SHT30;58451;51.550;7.208;2023-08-17T03:55:01;16.62;84.98
70830;SHT30;58451;51.550;7.208;2023-08-17T03:56:33;16.62;84.95
70830;SHT30;58451;51.550;7.208;2023-08-17T03:58:05;16.63;85.02
70830;SHT30;58451;51.550;7.208;2023-08-17T03:59:37;16.62;85.17
70830;SHT30;58451;51.550;7.208;2023-08-17T04:01:09;16.60;85.07
70830;SHT30;58451;51.550;7.208;2023-08-17T04:02:43;16.59;85.03
70830;SHT30;58451;51.550;7.208;2023-08-17T04:04:18;16.59;84.97
70830;SHT30;58451;51.550;7.208;2023-08-17T04:05:50;16.60;84.97
70830;SHT30;58451;51.550;7.208;2023-08-17T04:07:22;16.59;84.97
70830;SHT30;58451;51.550;7.208;2023-08-17T04:08:57;16.60;84.92
70830;SHT30;58451;51.550;7.208;2023-08-17T04:10:29;16.59;84.92
70830;SHT30;58451;51.550;7.208;2023-08-17T04:12:01;16.61;84.97
70830;SHT30;58451;51.550;7.208;2023-08-17T04:13:37;16.60;84.93
70830;SHT30;58451;51.550;7.208;2023-08-17T04:15:09;16.60;84.93
70830;SHT30;58451;51.550;7.208;2023-08-17T04:16:41;16.62;85.13
70830;SHT30;58451;51.550;7.208;2023-08-17T04:18:13;16.60;85.10
70830;SHT30;58451;51.550;7.208;2023-08-17T04:19:44;16.60;85.05
70830;SHT30;58451;51.550;7.208;2023-08-17T04:21:16;16.61;84.97
70830;SHT30;58451;51.550;7.208;2023-08-17T04:22:48;16.63;84.98
70830;SHT30;58451;51.550;7.208;2023-08-17T04:24:20;16.64;85.03
70830;SHT30;58451;51.550;7.208;2023-08-17T04:25:53;16.64;85.02
70830;SHT30;58451;51.550;7.208;2023-08-17T04:27:26;16.62;85.02
70830;SHT30;58451;51.550;7.208;2023-08-17T04:28:59;16.63;84.98
70830;SHT30;58451;51.550;7.208;2023-08-17T04:30:32;16.63;85.02
70830;SHT30;58451;51.550;7.208;2023-08-17T04:32:04;16.64;85.00
70830;SHT30;58451;51.550;7.208;2023-08-17T04:33:36;16.64;84.97
70830;SHT30;58451;51.550;7.208;2023-08-17T04:35:08;16.65;84.93
70830;SHT30;58451;51.550;7.208;2023-08-17T04:36:41;16.66;84.90
70830;SHT30;58451;51.550;7.208;2023-08-17T04:38:13;16.67;84.93
70830;SHT30;58451;51.550;7.208;2023-08-17T04:39:46;16.69;84.93
70830;SHT30;58451;51.550;7.208;2023-08-17T04:41:22;16.71;84.85
70830;SHT30;58451;51.550;7.208;2023-08-17T04:42:55;16.72;84.82
70830;SHT30;58451;51.550;7.208;2023-08-17T04:44:27;16.75;84.87
70830;SHT30;58451;51.550;7.208;2023-08-17T04:45:59;16.76;84.85
70830;SHT30;58451;51.550;7.208;2023-08-17T04:47:31;16.79;84.85
70830;SHT30;58451;51.550;7.208;2023-08-17T04:49:03;16.82;84.83
70830;SHT30;58451;51.550;7.208;2023-08-17T04:50:35;16.83;84.87
70830;SHT30;58451;51.550;7.208;2023-08-17T04:52:07;16.84;84.83
70830;SHT30;58451;51.550;7.208;2023-08-17T04:53:39;16.84;84.78
70830;SHT30;58451;51.550;7.208;2023-08-17T04:55:13;16.85;84.75
70830;SHT30;58451;51.550;7.208;2023-08-17T04:56:46;16.87;84.72
70830;SHT30;58451;51.550;7.208;2023-08-17T04:58:18;16.89;84.75
70830;SHT30;58451;51.550;7.208;2023-08-17T04:59:50;16.91;84.68
70830;SHT30;58451;51.550;7.208;2023-08-17T05:01:22;16.94;84.68
70830;SHT30;58451;51.550;7.208;2023-08-17T05:02:55;16.95;84.67
70830;SHT30;58451;51.550;7.208;2023-08-17T05:04:29;16.99;84.60
70830;SHT30;58451;51.550;7.208;2023-08-17T05:06:02;17.03;84.50
70830;SHT30;58451;51.550;7.208;2023-08-17T05:07:35;17.06;84.53
70830;SHT30;58451;51.550;7.208;2023-08-17T05:09:07;17.10;84.62
70830;SHT30;58451;51.550;7.208;2023-08-17T05:10:39;17.12;84.65
70830;SHT30;58451;51.550;7.208;2023-08-17T05:12:11;17.14;84.62
70830;SHT30;58451;51.550;7.208;2023-08-17T05:13:43;17.16;84.62
70830;SHT30;58451;51.550;7.208;2023-08-17T05:15:15;17.18;84.60
70830;SHT30;58451;51.550;7.208;2023-08-17T05:16:47;17.20;84.65
70830;SHT30;58451;51.550;7.208;2023-08-17T05:18:19;17.21;84.57
70830;SHT30;58451;51.550;7.208;2023-08-17T05:19:51;17.21;84.57
70830;SHT30;58451;51.550;7.208;2023-08-17T05:21:23;17.23;84.52
70830;SHT30;58451;51.550;7.208;2023-08-17T05:22:55;17.24;84.52
70830;SHT30;58451;51.550;7.208;2023-08-17T05:24:27;17.24;84.42
70830;SHT30;58451;51.550;7.208;2023-08-17T05:25:59;17.25;84.35
70830;SHT30;58451;51.550;7.208;2023-08-17T05:27:32;17.25;84.35
70830;SHT30;58451;51.550;7.208;2023-08-17T05:29:04;17.26;84.27
70830;SHT30;58451;51.550;7.208;2023-08-17T05:30:36;17.27;84.23
70830;SHT30;58451;51.550;7.208;2023-08-17T05:32:08;17.28;84.22
70830;SHT30;58451;51.550;7.208;2023-08-17T05:33:40;17.32;84.17
70830;SHT30;58451;51.550;7.208;2023-08-17T05:35:12;17.33;84.13
70830;SHT30;58451;51.550;7.208;2023-08-17T05:36:44;17.35;84.07
70830;SHT30;58451;51.550;7.208;2023-08-17T05:38:17;17.37;84.03
70830;SHT30;58451;51.550;7.208;2023-08-17T05:39:49;17.37;84.07
70830;SHT30;58451;51.550;7.208;2023-08-17T05:41:21;17.39;84.03
70830;SHT30;58451;51.550;7.208;2023-08-17T05:42:53;17.40;84.00
70830;SHT30;58451;51.550;7.208;2023-08-17T05:44:25;17.42;83.95
70830;SHT30;58451;51.550;7.208;2023-08-17T05:45:57;17.45;83.93
70830;SHT30;58451;51.550;7.208;2023-08-17T05:47:32;17.49;83.92
70830;SHT30;58451;51.550;7.208;2023-08-17T05:49:04;17.52;83.92
70830;SHT30;58451;51.550;7.208;2023-08-17T05:50:36;17.55;83.90
70830;SHT30;58451;51.550;7.208;2023-08-17T05:52:08;17.57;83.87
70830;SHT30;58451;51.550;7.208;2023-08-17T05:53:39;17.58;83.85
70830;SHT30;58451;51.550;7.208;2023-08-17T05:55:11;17.61;83.85
70830;SHT30;58451;51.550;7.208;2023-08-17T05:56:43;17.66;83.80
70830;SHT30;58451;51.550;7.208;2023-08-17T05:58:18;17.67;83.77
70830;SHT30;58451;51.550;7.208;2023-08-17T05:59:50;17.71;83.73
70830;SHT30;58451;51.550;7.208;2023-08-17T06:01:21;17.76;83.70
70830;SHT30;58451;51.550;7.208;2023-08-17T06:02:53;17.77;83.55
70830;SHT30;58451;51.550;7.208;2023-08-17T06:04:26;17.76;83.47
70830;SHT30;58451;51.550;7.208;2023-08-17T06:05:58;17.76;83.43
70830;SHT30;58451;51.550;7.208;2023-08-17T06:07:30;17.80;83.42
70830;SHT30;58451;51.550;7.208;2023-08-17T06:09:02;17.83;83.33
70830;SHT30;58451;51.550;7.208;2023-08-17T06:10:34;17.83;83.20
70830;SHT30;58451;51.550;7.208;2023-08-17T06:12:07;17.83;83.17
70830;SHT30;58451;51.550;7.208;2023-08-17T06:13:38;17.85;83.12
70830;SHT30;58451;51.550;7.208;2023-08-17T06:15:10;17.85;83.02
70830;SHT30;58451;51.550;7.208;2023-08-17T06:16:42;17.89;83.02
70830;SHT30;58451;51.550;7.208;2023-08-17T06:18:14;17.93;82.90
70830;SHT30;58451;51.550;7.208;2023-08-17T06:19:46;17.92;82.72
70830;SHT30;58451;51.550;7.208;2023-08-17T06:21:17;17.91;82.75
70830;SHT30;58451;51.550;7.208;2023-08-17T06:22:49;17.90;82.72
70830;SHT30;58451;51.550;7.208;2023-08-17T06:24:21;17.89;82.70
70830;SHT30;58451;51.550;7.208;2023-08-17T06:25:59;17.91;82.70
70830;SHT30;58451;51.550;7.208;2023-08-17T06:27:32;17.93;82.65
70830;SHT30;58451;51.550;7.208;2023-08-17T06:29:05;17.96;82.55
70830;SHT30;58451;51.550;7.208;2023-08-17T06:30:37;17.97;82.52
70830;SHT30;58451;51.550;7.208;2023-08-17T06:32:09;17.97;82.28
70830;SHT30;58451;51.550;7.208;2023-08-17T06:33:40;17.93;82.18
70830;SHT30;58451;51.550;7.208;2023-08-17T06:35:12;17.93;82.22
70830;SHT30;58451;51.550;7.208;2023-08-17T06:36:53;17.97;82.20
70830;SHT30;58451;51.550;7.208;2023-08-17T06:38:30;18.02;82.18
70830;SHT30;58451;51.550;7.208;2023-08-17T06:40:03;18.09;82.12
70830;SHT30;58451;51.550;7.208;2023-08-17T06:41:36;18.16;82.10
70830;SHT30;58451;51.550;7.208;2023-08-17T06:43:08;18.24;82.05
70830;SHT30;58451;51.550;7.208;2023-08-17T06:44:40;18.31;81.92
70830;SHT30;58451;51.550;7.208;2023-08-17T06:46:12;18.37;81.83
70830;SHT30;58451;51.550;7.208;2023-08-17T06:47:45;18.43;81.60
70830;SHT30;58451;51.550;7.208;2023-08-17T06:49:20;18.46;81.47
70830;SHT30;58451;51.550;7.208;2023-08-17T06:50:52;18.50;81.52
70830;SHT30;58451;51.550;7.208;2023-08-17T06:52:23;18.55;81.47
70830;SHT30;58451;51.550;7.208;2023-08-17T06:53:56;18.58;81.30
70830;SHT30;58451;51.550;7.208;2023-08-17T06:55:28;18.60;81.13
70830;SHT30;58451;51.550;7.208;2023-08-17T06:57:00;18.63;81.07
70830;SHT30;58451;51.550;7.208;2023-08-17T06:58:32;18.63;81.00
70830;SHT30;58451;51.550;7.208;2023-08-17T07:00:04;18.67;80.78
70830;SHT30;58451;51.550;7.208;2023-08-17T07:01:37;18.71;80.62
70830;SHT30;58451;51.550;7.208;2023-08-17T07:03:09;18.73;80.63
70830;SHT30;58451;51.550;7.208;2023-08-17T07:04:40;18.75;80.58
70830;SHT30;58451;51.550;7.208;2023-08-17T07:06:12;18.75;80.55
70830;SHT30;58451;51.550;7.208;2023-08-17T07:07:45;18.75;80.55
70830;SHT30;58451;51.550;7.208;2023-08-17T07:09:17;18.77;80.45
70830;SHT30;58451;51.550;7.208;2023-08-17T07:10:49;18.76;80.53
70830;SHT30;58451;51.550;7.208;2023-08-17T07:12:20;18.79;80.52
70830;SHT30;58451;51.550;7.208;2023-08-17T07:13:52;18.84;80.40
70830;SHT30;58451;51.550;7.208;2023-08-17T07:15:24;18.85;80.25
70830;SHT30;58451;51.550;7.208;2023-08-17T07:16:56;18.80;80.25
70830;SHT30;58451;51.550;7.208;2023-08-17T07:18:29;18.85;80.38
70830;SHT30;58451;51.550;7.208;2023-08-17T07:20:00;18.89;80.32
70830;SHT30;58451;51.550;7.208;2023-08-17T07:21:35;18.90;80.10
70830;SHT30;58451;51.550;7.208;2023-08-17T07:23:07;18.92;80.07
70830;SHT30;58451;51.550;7.208;2023-08-17T07:24:39;18.93;80.05
70830;SHT30;58451;51.550;7.208;2023-08-17T07:26:11;18.94;80.05
70830;SHT30;58451;51.550;7.208;2023-08-17T07:27:43;18.92;80.07
70830;SHT30;58451;51.550;7.208;2023-08-17T07:29:15;18.94;80.07
70830;SHT30;58451;51.550;7.208;2023-08-17T07:30:47;18.98;80.10
70830;SHT30;58451;51.550;7.208;2023-08-17T07:32:19;19.00;79.87
70830;SHT30;58451;51.550;7.208;2023-08-17T07:33:52;19.01;79.88
70830;SHT30;58451;51.550;7.208;2023-08-17T07:35:24;19.08;79.92
70830;SHT30;58451;51.550;7.208;2023-08-17T07:36:56;19.09;79.80
70830;SHT30;58451;51.550;7.208;2023-08-17T07:38:28;19.10;79.80
70830;SHT30;58451;51.550;7.208;2023-08-17T07:40:00;19.18;79.80
70830;SHT30;58451;51.550;7.208;2023-08-17T07:41:35;19.23;79.67
70830;SHT30;58451;51.550;7.208;2023-08-17T07:43:07;19.23;79.67
70830;SHT30;58451;51.550;7.208;2023-08-17T07:44:41;19.25;79.52
70830;SHT30;58451;51.550;7.208;2023-08-17T07:46:13;19.26;79.30
70830;SHT30;58451;51.550;7.208;2023-08-17T07:47:45;19.24;79.23
70830;SHT30;58451;51.550;7.208;2023-08-17T07:49:17;19.22;79.25
70830;SHT30;58451;51.550;7.208;2023-08-17T07:51:03;19.23;79.13
70830;SHT30;58451;51.550;7.208;2023-08-17T07:52:35;19.25;79.25
70830;SHT30;58451;51.550;7.208;2023-08-17T07:54:07;19.25;79.33
70830;SHT30;58451;51.550;7.208;2023-08-17T07:55:39;19.25;79.35
70830;SHT30;58451;51.550;7.208;2023-08-17T07:57:11;19.25;79.40
70830;SHT30;58451;51.550;7.208;2023-08-17T07:58:42;19.25;79.38
70830;SHT30;58451;51.550;7.208;2023-08-17T08:00:14;19.28;79.40
70830;SHT30;58451;51.550;7.208;2023-08-17T08:01:47;19.31;79.30
70830;SHT30;58451;51.550;7.208;2023-08-17T08:03:19;19.34;79.18
70830;SHT30;58451;51.550;7.208;2023-08-17T08:04:53;19.33;79.12
70830;SHT30;58451;51.550;7.208;2023-08-17T08:06:24;19.32;79.17
70830;SHT30;58451;51.550;7.208;2023-08-17T08:07:56;19.32;79.13
70830;SHT30;58451;51.550;7.208;2023-08-17T08:09:28;19.33;79.22
70830;SHT30;58451;51.550;7.208;2023-08-17T08:11:00;19.39;79.18
70830;SHT30;58451;51.550;7.208;2023-08-17T08:12:32;19.39;78.93
70830;SHT30;58451;51.550;7.208;2023-08-17T08:14:04;19.37;78.92
70830;SHT30;58451;51.550;7.208;2023-08-17T08:15:35;19.39;78.92
70830;SHT30;58451;51.550;7.208;2023-08-17T08:17:07;19.39;78.97
70830;SHT30;58451;51.550;7.208;2023-08-17T08:18:39;19.43;79.02
70830;SHT30;58451;51.550;7.208;2023-08-17T08:20:11;19.50;79.03
70830;SHT30;58451;51.550;7.208;2023-08-17T08:21:43;19.55;78.88
70830;SHT30;58451;51.550;7.208;2023-08-17T08:23:15;19.56;78.78
70830;SHT30;58451;51.550;7.208;2023-08-17T08:24:46;19.55;78.73
70830;SHT30;58451;51.550;7.208;2023-08-17T08:26:18;19.50;78.43
70830;SHT30;58451;51.550;7.208;2023-08-17T08:27:50;19.47;78.63
70830;SHT30;58451;51.550;7.208;2023-08-17T08:29:22;19.45;78.57
70830;SHT30;58451;51.550;7.208;2023-08-17T08:30:54;19.42;78.73
70830;SHT30;58451;51.550;7.208;2023-08-17T08:32:25;19.47;78.92
70830;SHT30;58451;51.550;7.208;2023-08-17T08:33:59;19.53;78.93
70830;SHT30;58451;51.550;7.208;2023-08-17T08:35:31;19.56;78.90
70830;SHT30;58451;51.550;7.208;2023-08-17T08:37:03;19.59;78.95
70830;SHT30;58451;51.550;7.208;2023-08-17T08:38:35;19.63;78.67
70830;SHT30;58451;51.550;7.208;2023-08-17T08:40:10;19.62;78.48
70830;SHT30;58451;51.550;7.208;2023-08-17T08:41:46;19.61;78.45
70830;SHT30;58451;51.550;7.208;2023-08-17T08:43:18;19.62;78.37
70830;SHT30;58451;51.550;7.208;2023-08-17T08:44:51;19.59;78.40
70830;SHT30;58451;51.550;7.208;2023-08-17T08:46:23;19.58;78.35
70830;SHT30;58451;51.550;7.208;2023-08-17T08:48:02;19.53;78.40
70830;SHT30;58451;51.550;7.208;2023-08-17T08:49:38;19.50;78.53
70830;SHT30;58451;51.550;7.208;2023-08-17T08:51:15;19.50;78.67
70830;SHT30;58451;51.550;7.208;2023-08-17T08:53:00;19.56;78.67
70830;SHT30;58451;51.550;7.208;2023-08-17T08:54:35;19.55;78.55
70830;SHT30;58451;51.550;7.208;2023-08-17T08:56:11;19.57;78.67
70830;SHT30;58451;51.550;7.208;2023-08-17T08:57:45;19.62;78.57
70830;SHT30;58451;51.550;7.208;2023-08-17T08:59:22;19.62;78.47
70830;SHT30;58451;51.550;7.208;2023-08-17T09:00:55;19.59;78.50
70830;SHT30;58451;51.550;7.208;2023-08-17T09:02:30;19.58;78.42
70830;SHT30;58451;51.550;7.208;2023-08-17T09:04:02;19.56;78.42
70830;SHT30;58451;51.550;7.208;2023-08-17T09:05:35;19.54;78.38
70830;SHT30;58451;51.550;7.208;2023-08-17T09:07:09;19.56;78.45
70830;SHT30;58451;51.550;7.208;2023-08-17T09:08:45;19.62;78.48
70830;SHT30;58451;51.550;7.208;2023-08-17T09:10:18;19.69;78.40
70830;SHT30;58451;51.550;7.208;2023-08-17T09:11:50;19.72;78.40
70830;SHT30;58451;51.550;7.208;2023-08-17T09:13:22;19.72;78.35
70830;SHT30;58451;51.550;7.208;2023-08-17T09:14:54;19.76;78.50
70830;SHT30;58451;51.550;7.208;2023-08-17T09:16:27;19.85;78.48
70830;SHT30;58451;51.550;7.208;2023-08-17T09:17:59;19.87;78.33
70830;SHT30;58451;51.550;7.208;2023-08-17T09:19:32;19.92;78.43
70830;SHT30;58451;51.550;7.208;2023-08-17T09:21:05;20.00;78.43
70830;SHT30;58451;51.550;7.208;2023-08-17T09:22:38;20.06;78.35
70830;SHT30;58451;51.550;7.208;2023-08-17T09:24:13;20.15;78.32
70830;SHT30;58451;51.550;7.208;2023-08-17T09:25:45;20.24;77.98
70830;SHT30;58451;51.550;7.208;2023-08-17T09:27:23;20.26;77.63
70830;SHT30;58451;51.550;7.208;2023-08-17T09:28:55;20.34;77.62
70830;SHT30;58451;51.550;7.208;2023-08-17T09:30:30;20.41;77.35
70830;SHT30;58451;51.550;7.208;2023-08-17T09:32:08;20.46;77.35
70830;SHT30;58451;51.550;7.208;2023-08-17T09:33:41;20.62;77.35
70830;SHT30;58451;51.550;7.208;2023-08-17T09:35:18;20.82;77.05
70830;SHT30;58451;51.550;7.208;2023-08-17T09:36:50;20.93;76.70
70830;SHT30;58451;51.550;7.208;2023-08-17T09:38:22;21.08;76.67
70830;SHT30;58451;51.550;7.208;2023-08-17T09:39:54;21.27;76.30
70830;SHT30;58451;51.550;7.208;2023-08-17T09:41:27;21.53;75.80
70830;SHT30;58451;51.550;7.208;2023-08-17T09:42:59;21.68;75.27
70830;SHT30;58451;51.550;7.208;2023-08-17T09:44:33;21.81;75.07
70830;SHT30;58451;51.550;7.208;2023-08-17T09:46:06;21.82;74.12
70830;SHT30;58451;51.550;7.208;2023-08-17T09:47:42;21.67;74.25
70830;SHT30;58451;51.550;7.208;2023-08-17T09:49:14;21.57;74.33